Accueil
Images satellite Prévisions 15 joursClimatMétéo marine Cyclones Foudre AéroportsFAQ Actualités A propos
Météo : Europe Afrique Amérique du Nord Amérique du Sud Asie Australie-Océanie Autres
Langues Contact

Bauru, São Paulo, Brésil

latitude: 22-19S, longitude: 049-04W, altitude: 590 m


METAR: SBBU 230400Z 12002KT 9999 SCT009 BKN090 22/22 Q1014
TAF: absent

Heure: 02:21 (04:21 UTC)

Observation

Le bulletin a été fait il y a 21 minutes, à 04:00 UTC
Vent 2 kt de est/sud-est
Température 22°C
Humidité 100%
Pression 1014 hPa
Visibilité 10 km ou plus
Nuages épars à une hauteur de 900 ft
Nuages fragmentés à une hauteur de 9000 ft

Changer d'unités
Les informations qui figurent sur ce site font l'objet d'une clause de non-responsabilité
Météo : Europe Afrique Amérique du Nord Amérique du Sud Asie Australie-Océanie Autres
Images satellite Prévisions 15 joursClimatMétéo marine Cyclones Foudre AéroportsFAQ Langues Contact Actualités A propos